Wetterstation Vordersexau
Wetterdaten: Woche 21.07.14 - 27.07.14 (KW30)
Datum Zeit Temp. A. Feuchte A. Luftdruck Regen Wind Richtung Taupunkt Windchill Windben
21.07.2014 00:00 16,6 C 83 % 984,1 hPa 2,0 l/m 0,0 km/h SO 13,7 C 16,6 C 0,0 km/h
21.07.2014 01:00 16,5 C 81 % 984,3 hPa 0,5 l/m 0,0 km/h SW 13,2 C 16,5 C 0,0 km/h
21.07.2014 02:00 16,2 C 81 % 984,0 hPa 0,2 l/m 0,0 km/h SW 12,9 C 16,2 C 0,0 km/h
21.07.2014 03:00 15,9 C 81 % 983,5 hPa 0,3 l/m 1,1 km/h SW 12,6 C 15,9 C 1,1 km/h
21.07.2014 04:00 15,9 C 80 % 983,5 hPa 0,0 l/m 0,0 km/h W 12,5 C 15,9 C 0,0 km/h
21.07.2014 05:00 15,5 C 80 % 983,2 hPa 0,6 l/m 0,0 km/h W 12,1 C 15,5 C 0,0 km/h
21.07.2014 06:00 15,6 C 80 % 983,5 hPa 0,0 l/m 0,0 km/h W-SW 12,2 C 15,6 C 0,0 km/h
21.07.2014 07:00 15,9 C 80 % 983,4 hPa 0,0 l/m 0,0 km/h W 12,5 C 15,9 C 0,0 km/h
21.07.2014 08:00 16,4 C 82 % 983,9 hPa 0,0 l/m 0,0 km/h W 13,3 C 16,4 C 0,0 km/h
21.07.2014 09:00 17,2 C 85 % 984,3 hPa 0,0 l/m 0,0 km/h W-SW 14,7 C 17,2 C 0,0 km/h
21.07.2014 10:00 20,3 C 83 % 984,3 hPa 0,0 l/m 5,8 km/h W-SW 17,3 C 20,3 C 3,2 km/h
21.07.2014 11:00 19,6 C 82 % 984,1 hPa 0,0 l/m 6,5 km/h S-SW 16,4 C 19,6 C 3,6 km/h
21.07.2014 12:00 21,6 C 77 % 984,4 hPa 0,0 l/m 10,4 km/h S 17,4 C 20,3 C 5,8 km/h
21.07.2014 13:00 21,9 C 79 % 984,3 hPa 0,0 l/m 3,2 km/h S-SW 18,1 C 21,9 C 1,8 km/h
21.07.2014 14:00 24,4 C 66 % 984,1 hPa 0,2 l/m 0,0 km/h W-NW 17,6 C 24,4 C 0,0 km/h
21.07.2014 15:00 20,1 C 77 % 984,2 hPa 0,0 l/m 0,0 km/h W 15,9 C 20,1 C 0,0 km/h
21.07.2014 16:00 22,1 C 76 % 984,2 hPa 0,2 l/m 5,8 km/h NW 17,7 C 22,1 C 3,2 km/h
21.07.2014 17:00 22,8 C 76 % 984,1 hPa 0,0 l/m 0,0 km/h W 18,3 C 22,8 C 0,0 km/h
21.07.2014 18:00 21,1 C 80 % 984,1 hPa 0,0 l/m 0,0 km/h NW 17,5 C 21,1 C 0,0 km/h
21.07.2014 19:00 18,3 C 85 % 984,2 hPa 0,6 l/m 0,0 km/h SW 15,7 C 18,3 C 0,0 km/h
21.07.2014 20:00 17,8 C 85 % 984,2 hPa 0,9 l/m 0,0 km/h S 15,2 C 17,8 C 0,0 km/h
21.07.2014 21:00 17,4 C 84 % 984,1 hPa 3,3 l/m 0,0 km/h W-NW 14,7 C 17,4 C 0,0 km/h
21.07.2014 22:00 17,3 C 82 % 984,5 hPa 1,7 l/m 0,0 km/h W 14,2 C 17,3 C 0,0 km/h
21.07.2014 23:00 17,4 C 82 % 984,5 hPa 0,3 l/m 0,0 km/h W 14,3 C 17,4 C 0,0 km/h
22.07.2014 00:00 17,4 C 82 % 984,5 hPa 1,6 l/m 0,0 km/h W 14,3 C 17,4 C 0,0 km/h
22.07.2014 01:00 17,5 C 81 % 984,3 hPa 0,5 l/m 0,0 km/h W 14,2 C 17,5 C 0,0 km/h
22.07.2014 02:00 17,6 C 81 % 984,1 hPa 0,2 l/m 0,0 km/h W 14,3 C 17,6 C 0,0 km/h
22.07.2014 03:00 17,6 C 80 % 983,9 hPa 0,0 l/m 0,0 km/h W 14,1 C 17,6 C 0,0 km/h
22.07.2014 04:00 17,7 C 80 % 983,8 hPa 0,0 l/m 0,0 km/h W 14,2 C 17,7 C 0,0 km/h
22.07.2014 05:00 17,6 C 79 % 983,9 hPa 0,2 l/m 0,0 km/h W 13,9 C 17,6 C 0,0 km/h
22.07.2014 06:00 17,6 C 78 % 983,8 hPa 0,2 l/m 0,0 km/h S-SW 13,7 C 17,6 C 0,0 km/h
22.07.2014 07:00 17,7 C 78 % 983,7 hPa 1,1 l/m 0,0 km/h W-NW 13,8 C 17,7 C 0,0 km/h
22.07.2014 08:00 17,4 C 77 % 983,8 hPa 2,3 l/m 9,1 km/h S-SW 13,3 C 16,1 C 5,0 km/h
22.07.2014 09:00 17,3 C 76 % 983,9 hPa 1,2 l/m 0,0 km/h SW 13,0 C 17,3 C 0,0 km/h
22.07.2014 10:00 18,1 C 76 % 984,3 hPa 0,5 l/m 1,3 km/h SW 13,8 C 18,1 C 0,7 km/h
22.07.2014 11:00 18,2 C 76 % 984,8 hPa 0,2 l/m 0,0 km/h W 13,9 C 18,2 C 0,0 km/h
22.07.2014 12:00 18,0 C 78 % 985,1 hPa 0,5 l/m 4,5 km/h W 14,1 C 18,0 C 2,5 km/h
22.07.2014 13:00 19,8 C 85 % 985,2 hPa 0,0 l/m 1,4 km/h W 17,2 C 19,8 C 1,4 km/h
22.07.2014 14:00 21,3 C 86 % 985,2 hPa 0,0 l/m 0,0 km/h W 18,9 C 21,3 C 0,0 km/h
22.07.2014 15:00 20,5 C 86 % 985,3 hPa 0,2 l/m 1,3 km/h W 18,1 C 20,5 C 0,7 km/h
22.07.2014 16:00 20,1 C 86 % 985,5 hPa 0,2 l/m 0,0 km/h N 17,7 C 20,1 C 0,0 km/h
22.07.2014 17:00 19,9 C 86 % 985,5 hPa 1,1 l/m 0,0 km/h N 17,5 C 19,9 C 0,0 km/h
22.07.2014 18:00 26,1 C 78 % 1012,5 hPa 0,0 l/m 0,0 km/h S-SO 22,0 C 26,1 C 0,0 km/h
22.07.2014 19:00 23,6 C 81 % 1012,7 hPa 0,0 l/m 0,0 km/h W-NW 20,1 C 23,6 C 0,0 km/h
22.07.2014 20:00 20,9 C 85 % 1013,2 hPa 2,3 l/m 0,0 km/h N-NO 18,3 C 20,9 C 0,0 km/h
22.07.2014 21:00 19,1 C 87 % 986,4 hPa 0,6 l/m 0,0 km/h N-NO 16,9 C 19,1 C 0,0 km/h
22.07.2014 22:00 18,8 C 86 % 986,5 hPa 0,4 l/m 0,0 km/h N-NO 16,4 C 18,8 C 0,0 km/h
22.07.2014 23:00 18,5 C 85 % 986,6 hPa 0,0 l/m 0,0 km/h O-NO 15,9 C 18,5 C 0,0 km/h
23.07.2014 00:00 18,1 C 85 % 986,6 hPa 0,0 l/m 0,0 km/h O-NO 15,5 C 18,1 C 0,0 km/h
23.07.2014 01:00 17,6 C 84 % 986,5 hPa 0,0 l/m 0,0 km/h O-SO 14,9 C 17,6 C 0,0 km/h
23.07.2014 02:00 17,0 C 84 % 986,3 hPa 0,0 l/m 0,0 km/h SO 14,3 C 17,0 C 0,0 km/h
23.07.2014 03:00 16,3 C 83 % 985,8 hPa 0,0 l/m 3,2 km/h SO 13,4 C 16,3 C 3,2 km/h
23.07.2014 04:00 15,9 C 82 % 985,8 hPa 0,0 l/m 0,0 km/h O-SO 12,8 C 15,9 C 0,0 km/h
23.07.2014 05:00 15,4 C 82 % 985,9 hPa 0,0 l/m 0,0 km/h N-NO 12,3 C 15,4 C 0,0 km/h
23.07.2014 06:00 15,4 C 81 % 985,9 hPa 0,0 l/m 0,0 km/h N-NO 12,2 C 15,4 C 0,0 km/h
23.07.2014 07:00 16,6 C 78 % 985,7 hPa 0,0 l/m 0,0 km/h W-NW 12,7 C 16,6 C 0,0 km/h
23.07.2014 08:00 19,5 C 83 % 985,9 hPa 0,0 l/m 0,0 km/h NW 16,5 C 19,5 C 0,0 km/h
23.07.2014 09:00 18,9 C 87 % 985,7 hPa 0,0 l/m 0,0 km/h NW 16,7 C 18,9 C 0,0 km/h
23.07.2014 10:00 21,4 C 85 % 985,4 hPa 0,0 l/m 0,0 km/h S-SW 18,8 C 21,4 C 0,0 km/h
23.07.2014 11:00 24,4 C 78 % 985,1 hPa 0,0 l/m 0,0 km/h W 20,3 C 24,4 C 0,0 km/h
23.07.2014 12:00 28,3 C 70 % 984,5 hPa 0,0 l/m 0,0 km/h N-NO 22,3 C 28,3 C 0,0 km/h
23.07.2014 13:00 29,9 C 59 % 984,5 hPa 0,0 l/m 0,0 km/h NO 21,0 C 29,9 C 0,0 km/h
23.07.2014 14:00 29,1 C 55 % 983,9 hPa 0,0 l/m 0,0 km/h N 19,1 C 29,1 C 0,0 km/h
23.07.2014 15:00 29,5 C 57 % 983,7 hPa 0,0 l/m 0,0 km/h N-NO 20,1 C 29,5 C 0,0 km/h
23.07.2014 16:00 31,3 C 48 % 983,6 hPa 0,0 l/m 0,0 km/h N-NO 18,9 C 31,3 C 0,0 km/h
23.07.2014 17:00 30,9 C 50 % 983,0 hPa 0,0 l/m 1,9 km/h N-NO 19,2 C 30,9 C 1,1 km/h
23.07.2014 18:00 30,5 C 45 % 982,8 hPa 0,0 l/m 0,0 km/h O-NO 17,2 C 30,5 C 0,0 km/h
23.07.2014 19:00 32,6 C 40 % 982,9 hPa 0,0 l/m 0,0 km/h N-NO 17,2 C 32,6 C 0,0 km/h
23.07.2014 20:00 24,2 C 55 % 983,1 hPa 0,0 l/m 0,0 km/h O-NO 14,6 C 24,2 C 0,0 km/h
23.07.2014 21:00 20,2 C 72 % 983,1 hPa 0,0 l/m 0,0 km/h O-NO 15,0 C 20,2 C 0,0 km/h
23.07.2014 22:00 18,4 C 79 % 983,6 hPa 0,0 l/m 0,0 km/h NO 14,7 C 18,4 C 0,0 km/h
23.07.2014 23:00 17,3 C 81 % 983,4 hPa 0,0 l/m 0,0 km/h SO 14,0 C 17,3 C 0,0 km/h
24.07.2014 00:00 16,2 C 83 % 983,1 hPa 0,0 l/m 0,0 km/h SO 13,3 C 16,2 C 0,0 km/h
24.07.2014 01:00 15,9 C 84 % 983,0 hPa 0,0 l/m 0,0 km/h N-NO 13,2 C 15,9 C 0,0 km/h
24.07.2014 02:00 14,8 C 85 % 982,7 hPa 0,0 l/m 0,0 km/h O 12,3 C 14,8 C 0,0 km/h
24.07.2014 03:00 13,8 C 86 % 982,1 hPa 0,0 l/m 0,0 km/h O-NO 11,5 C 13,8 C 0,0 km/h
24.07.2014 04:00 13,3 C 86 % 982,0 hPa 0,0 l/m 0,0 km/h NO 11,0 C 13,3 C 0,0 km/h
24.07.2014 05:00 12,9 C 87 % 982,0 hPa 0,0 l/m 0,0 km/h O 10,8 C 12,9 C 0,0 km/h
24.07.2014 06:00 12,7 C 86 % 982,2 hPa 0,0 l/m 0,0 km/h N-NO 10,4 C 12,7 C 0,0 km/h
24.07.2014 07:00 14,3 C 85 % 982,4 hPa 0,0 l/m 0,0 km/h N-NO 11,8 C 14,3 C 0,0 km/h
24.07.2014 08:00 22,9 C 71 % 982,8 hPa 0,0 l/m 0,0 km/h W-NW 17,4 C 22,9 C 0,0 km/h
24.07.2014 09:00 27,5 C 57 % 982,7 hPa 0,0 l/m 0,0 km/h W-NW 18,2 C 27,5 C 0,0 km/h
24.07.2014 10:00 28,5 C 55 % 982,9 hPa 0,0 l/m 0,0 km/h W-NW 18,6 C 28,5 C 0,0 km/h
24.07.2014 11:00 30,2 C 51 % 983,0 hPa 0,0 l/m 0,0 km/h NW 18,9 C 30,2 C 0,0 km/h
24.07.2014 12:00 28,9 C 54 % 982,8 hPa 0,0 l/m 0,6 km/h N-NO 18,6 C 28,9 C 0,4 km/h
24.07.2014 13:00 30,1 C 48 % 982,7 hPa 0,0 l/m 3,2 km/h N-NO 17,9 C 30,1 C 1,8 km/h
24.07.2014 14:00 30,9 C 44 % 982,3 hPa 0,0 l/m 2,6 km/h N-NO 17,2 C 30,9 C 1,4 km/h
24.07.2014 15:00 31,5 C 38 % 982,1 hPa 0,0 l/m 13,0 km/h N-NO 15,4 C 31,2 C 7,2 km/h
24.07.2014 16:00 33,1 C 34 % 982,3 hPa 0,0 l/m 14,9 km/h N-NO 15,1 C 33,1 C 8,3 km/h
24.07.2014 17:00 34,7 C 30 % 982,3 hPa 0,0 l/m 0,0 km/h SO 14,5 C 34,7 C 0,0 km/h
24.07.2014 18:00 27,8 C 44 % 982,5 hPa 0,0 l/m 14,9 km/h SO 14,4 C 26,7 C 8,3 km/h
24.07.2014 19:00 30,4 C 38 % 982,3 hPa 0,0 l/m 12,3 km/h SO 14,5 C 30,0 C 6,8 km/h
24.07.2014 20:00 23,2 C 54 % 982,7 hPa 0,0 l/m 0,0 km/h SO 13,4 C 23,2 C 0,0 km/h
24.07.2014 21:00 19,2 C 68 % 983,1 hPa 0,0 l/m 0,0 km/h SO 13,1 C 19,2 C 0,0 km/h
24.07.2014 22:00 16,9 C 75 % 983,6 hPa 0,0 l/m 0,0 km/h SO 12,4 C 16,9 C 0,0 km/h
24.07.2014 23:00 16,1 C 81 % 983,8 hPa 0,0 l/m 0,0 km/h SO 12,8 C 16,1 C 0,0 km/h
25.07.2014 00:00 15,3 C 82 % 983,8 hPa 0,0 l/m 0,0 km/h O-SO 12,2 C 15,3 C 0,0 km/h
25.07.2014 01:00 14,6 C 84 % 983,9 hPa 0,0 l/m 0,4 km/h SO 11,9 C 14,6 C 0,4 km/h
25.07.2014 02:00 13,9 C 85 % 983,8 hPa 0,0 l/m 0,0 km/h SO 11,4 C 13,9 C 0,0 km/h
25.07.2014 03:00 13,9 C 86 % 983,6 hPa 0,0 l/m 0,0 km/h SO 11,6 C 13,9 C 0,0 km/h
25.07.2014 04:00 13,6 C 86 % 983,7 hPa 0,0 l/m 0,0 km/h SO 11,3 C 13,6 C 0,0 km/h
25.07.2014 05:00 13,1 C 86 % 983,7 hPa 0,0 l/m 0,0 km/h SO 10,8 C 13,1 C 0,0 km/h
25.07.2014 06:00 12,8 C 86 % 983,8 hPa 0,0 l/m 0,0 km/h SO 10,5 C 12,8 C 0,0 km/h
25.07.2014 07:00 13,9 C 86 % 983,8 hPa 0,0 l/m 0,0 km/h SO 11,6 C 13,9 C 0,0 km/h
25.07.2014 08:00 22,9 C 73 % 984,0 hPa 0,0 l/m 0,0 km/h S-SO 17,8 C 22,9 C 0,0 km/h
25.07.2014 09:00 26,6 C 58 % 984,2 hPa 0,0 l/m 0,0 km/h W 17,6 C 26,6 C 0,0 km/h
25.07.2014 10:00 28,1 C 53 % 984,0 hPa 0,0 l/m 0,0 km/h W 17,6 C 28,1 C 0,0 km/h
25.07.2014 11:00 31,1 C 46 % 984,0 hPa 0,0 l/m 0,0 km/h W-SW 18,1 C 31,1 C 0,0 km/h
25.07.2014 12:00 30,3 C 49 % 983,4 hPa 0,0 l/m 1,1 km/h W-NW 18,4 C 30,3 C 1,1 km/h
25.07.2014 13:00 30,4 C 47 % 983,0 hPa 0,0 l/m 18,1 km/h W 17,8 C 29,7 C 10,1 km/h
25.07.2014 14:00 27,9 C 49 % 982,6 hPa 0,0 l/m 0,6 km/h N 16,2 C 27,9 C 0,4 km/h
25.07.2014 15:00 30,4 C 47 % 982,6 hPa 0,0 l/m 1,3 km/h N-NW 17,8 C 30,4 C 0,7 km/h
25.07.2014 16:00 27,6 C 54 % 982,1 hPa 0,0 l/m 0,0 km/h NW 17,4 C 27,6 C 0,0 km/h
25.07.2014 17:00 26,2 C 59 % 982,0 hPa 0,0 l/m 0,0 km/h N 17,5 C 26,2 C 0,0 km/h
25.07.2014 18:00 26,6 C 53 % 982,8 hPa 0,0 l/m 0,0 km/h SO 16,2 C 26,6 C 0,0 km/h
25.07.2014 19:00 29,3 C 46 % 982,5 hPa 0,0 l/m 0,0 km/h S-SO 16,5 C 29,3 C 0,0 km/h
25.07.2014 20:00 23,1 C 60 % 982,7 hPa 0,0 l/m 0,0 km/h SO 14,9 C 23,1 C 0,0 km/h
25.07.2014 21:00 20,1 C 72 % 983,1 hPa 0,0 l/m 0,0 km/h NO 14,9 C 20,1 C 0,0 km/h
25.07.2014 22:00 18,3 C 79 % 982,5 hPa 0,0 l/m 0,0 km/h NO 14,6 C 18,3 C 0,0 km/h
25.07.2014 23:00 17,4 C 81 % 982,7 hPa 0,0 l/m 0,0 km/h O-NO 14,1 C 17,4 C 0,0 km/h
26.07.2014 00:00 16,8 C 82 % 983,0 hPa 0,0 l/m 0,0 km/h O-NO 13,7 C 16,8 C 0,0 km/h
26.07.2014 01:00 16,8 C 83 % 983,3 hPa 0,0 l/m 0,0 km/h O-SO 13,9 C 16,8 C 0,0 km/h
26.07.2014 02:00 15,6 C 84 % 983,4 hPa 0,0 l/m 0,0 km/h O-SO 12,9 C 15,6 C 0,0 km/h
26.07.2014 03:00 14,9 C 85 % 983,1 hPa 0,0 l/m 0,0 km/h SO 12,4 C 14,9 C 0,0 km/h
26.07.2014 04:00 14,4 C 86 % 983,0 hPa 0,0 l/m 0,0 km/h SO 12,1 C 14,4 C 0,0 km/h
26.07.2014 05:00 14,2 C 86 % 982,6 hPa 0,0 l/m 0,0 km/h SO 11,9 C 14,2 C 0,0 km/h
26.07.2014 06:00 14,1 C 86 % 983,4 hPa 0,0 l/m 0,0 km/h SO 11,8 C 14,1 C 0,0 km/h
26.07.2014 07:00 15,4 C 86 % 983,7 hPa 0,0 l/m 0,0 km/h NO 13,1 C 15,4 C 0,0 km/h
26.07.2014 08:00 17,8 C 86 % 984,3 hPa 0,0 l/m 0,0 km/h O-SO 15,4 C 17,8 C 0,0 km/h
26.07.2014 09:00 18,1 C 84 % 985,1 hPa 0,0 l/m 0,0 km/h SO 15,4 C 18,1 C 0,0 km/h
26.07.2014 10:00 18,1 C 85 % 985,0 hPa 0,2 l/m 0,0 km/h SO 15,5 C 18,1 C 0,0 km/h
26.07.2014 11:00 20,4 C 82 % 985,4 hPa 0,2 l/m 0,0 km/h S-SO 17,2 C 20,4 C 0,0 km/h
26.07.2014 12:00 21,3 C 78 % 985,5 hPa 0,0 l/m 0,0 km/h W 17,3 C 21,3 C 0,0 km/h
26.07.2014 13:00 21,7 C 75 % 985,3 hPa 0,0 l/m 0,0 km/h NW 17,1 C 21,7 C 0,0 km/h
26.07.2014 14:00 22,2 C 73 % 985,4 hPa 0,0 l/m 0,0 km/h N-NO 17,1 C 22,2 C 0,0 km/h
26.07.2014 15:00 19,4 C 80 % 985,9 hPa 0,2 l/m 0,0 km/h N-NW 15,9 C 19,4 C 0,0 km/h
26.07.2014 16:00 19,4 C 82 % 985,7 hPa 0,6 l/m 0,0 km/h NW 16,2 C 19,4 C 0,0 km/h
26.07.2014 17:00 19,6 C 81 % 985,5 hPa 0,0 l/m 0,0 km/h W-NW 16,2 C 19,6 C 0,0 km/h
26.07.2014 18:00 20,1 C 81 % 985,5 hPa 0,0 l/m 0,0 km/h W 16,7 C 20,1 C 0,0 km/h
26.07.2014 19:00 19,6 C 81 % 985,6 hPa 0,0 l/m 0,0 km/h W 16,2 C 19,6 C 0,0 km/h
26.07.2014 20:00 18,4 C 83 % 985,8 hPa 0,0 l/m 0,0 km/h S-SW 15,5 C 18,4 C 0,0 km/h
26.07.2014 21:00 17,4 C 85 % 986,3 hPa 0,0 l/m 0,0 km/h S-SW 14,8 C 17,4 C 0,0 km/h
26.07.2014 22:00 16,6 C 86 % 986,5 hPa 0,0 l/m 0,0 km/h S-SO 14,2 C 16,6 C 0,0 km/h
26.07.2014 23:00 16,3 C 86 % 986,4 hPa 0,0 l/m 0,0 km/h SO 14,0 C 16,3 C 0,0 km/h
27.07.2014 00:00 15,9 C 86 % 986,9 hPa 0,0 l/m 2,9 km/h SO 13,6 C 15,9 C 2,9 km/h
27.07.2014 01:00 15,6 C 85 % 986,9 hPa 0,0 l/m 0,0 km/h SO 13,1 C 15,6 C 0,0 km/h
27.07.2014 02:00 15,7 C 85 % 986,8 hPa 0,0 l/m 0,0 km/h SO 13,2 C 15,7 C 0,0 km/h
27.07.2014 03:00 15,7 C 85 % 986,6 hPa 0,0 l/m 0,0 km/h SO 13,2 C 15,7 C 0,0 km/h
27.07.2014 04:00 15,5 C 85 % 986,5 hPa 0,0 l/m 0,0 km/h SO 13,0 C 15,5 C 0,0 km/h
27.07.2014 05:00 15,0 C 85 % 986,8 hPa 0,0 l/m 0,0 km/h SO 12,5 C 15,0 C 0,0 km/h
27.07.2014 06:00 14,3 C 85 % 986,8 hPa 0,0 l/m 0,0 km/h SO 11,8 C 14,3 C 0,0 km/h
27.07.2014 07:00 15,2 C 83 % 987,0 hPa 0,0 l/m 0,0 km/h SO 12,3 C 15,2 C 0,0 km/h
27.07.2014 08:00 17,6 C 82 % 987,4 hPa 0,0 l/m 0,0 km/h SO 14,5 C 17,6 C 0,0 km/h
27.07.2014 09:00 19,8 C 86 % 987,6 hPa 0,0 l/m 0,0 km/h W-SW 17,4 C 19,8 C 0,0 km/h
27.07.2014 10:00 25,5 C 67 % 987,7 hPa 0,0 l/m 0,0 km/h SO 18,9 C 25,5 C 0,0 km/h
27.07.2014 11:00 29,1 C 57 % 987,7 hPa 0,0 l/m 0,0 km/h W 19,7 C 29,1 C 0,0 km/h
27.07.2014 12:00 27,5 C 56 % 987,5 hPa 0,0 l/m 0,0 km/h N 17,9 C 27,5 C 0,0 km/h
27.07.2014 13:00 28,9 C 53 % 987,3 hPa 0,0 l/m 0,0 km/h SO 18,3 C 28,9 C 0,0 km/h
27.07.2014 14:00 29,9 C 52 % 987,2 hPa 0,0 l/m 0,0 km/h W 19,0 C 29,9 C 0,0 km/h
27.07.2014 15:00 32,7 C 45 % 986,9 hPa 0,0 l/m 2,6 km/h W 19,2 C 32,7 C 1,4 km/h
27.07.2014 16:00 33,6 C 41 % 986,2 hPa 0,0 l/m 1,9 km/h W 18,5 C 33,6 C 1,1 km/h
27.07.2014 17:00 36,5 C 37 % 985,9 hPa 0,0 l/m 8,4 km/h N-NW 19,4 C 36,5 C 4,7 km/h
27.07.2014 18:00 25,9 C 60 % 986,0 hPa 0,0 l/m 0,0 km/h N 17,5 C 25,9 C 0,0 km/h
27.07.2014 19:00 25,3 C 64 % 986,2 hPa 0,0 l/m 0,0 km/h O-SO 18,0 C 25,3 C 0,0 km/h
27.07.2014 20:00 23,6 C 70 % 986,2 hPa 0,0 l/m 0,0 km/h O 17,8 C 23,6 C 0,0 km/h
27.07.2014 21:00 20,5 C 79 % 986,5 hPa 0,0 l/m 0,0 km/h O-NO 16,7 C 20,5 C 0,0 km/h
27.07.2014 22:00 19,9 C 81 % 986,5 hPa 0,0 l/m 0,0 km/h O-SO 16,5 C 19,9 C 0,0 km/h
27.07.2014 23:00 19,4 C 83 % 986,2 hPa 0,0 l/m 0,0 km/h SO 16,4 C 19,4 C 0,0 km/h
Min-Datum _ 24.07.14 24.07.14 24.07.14 - 21.07.14 - 24.07.14 24.07.14 21.07.14
_ Min-Zeit 06:19 17:19 04:19 - 00:19 - 06:19 06:19 00:19
Minimum _ 12,7 C 30 % 982,0 hPa - 0,0 km/h - 10,4 C 12,7 C 0,0 km/h
Max-Datum _ 27.07.14 22.07.14 22.07.14 21.07.14 25.07.14 - 23.07.14 27.07.14 25.07.14
_ Max-Zeit 17:19 21:19 20:19 21:19 13:19 - 12:19 17:19 13:19
Maximum _ 36,5 C 87 % 1013,2 hPa 3,3 l/m 18,1 km/h
W
- 22,3 C 36,5 C 10,1 km/h
W
Durchschnitt _ 20,7 C 74 % 984,9 hPa #24,9 l/m 0,9 km/h SO 15,4 C 20,7 C 0,5 km/h
www.sexauwetter.de